FW5316 Weather Reports


Display with metric or nautical units.
time (UTC)temp
F
wind
direction
speed
MPH
gust
MPH
rain 1hr
in
rain 24hr
in
rain mn
in
humidity
%
barometer
mb
20200712061016 71 0.0 1.0 0.00 0.00 0.00 83 1015.9
20200712060016 72 171 0.0 4.0 0.00 0.00 0.00 83 1015.8
20200712055016 72 155 0.0 5.0 0.00 0.00 0.00 82 1015.9
20200712054016 72 164 1.0 4.0 0.00 0.00 0.00 82 1015.9
20200712053016 72 185 0.0 3.0 0.00 0.00 0.00 81 1015.8
20200712052016 73 181 1.0 4.0 0.00 0.00 0.00 81 1015.7
20200712051016 73 174 2.0 5.0 0.00 0.00 0.00 79 1015.6
20200712050016 73 168 1.0 6.0 0.00 0.00 0.00 79 1015.6
20200712045016 74 184 2.0 6.0 0.00 0.00 0.00 77 1015.6
20200712044016 74 198 2.0 4.0 0.00 0.00 0.00 76 1015.6
20200712043017 74 183 1.0 4.0 0.00 0.00 0.00 75 1015.5
20200712042016 75 180 0.0 4.0 0.00 0.00 0.00 73 1015.4
20200712041016 75 190 0.0 4.0 0.00 0.00 0.00 71 1015.2
20200712040017 76 0.0 2.0 0.00 0.00 0.00 71 1015.0
20200712035017 76 288 0.0 3.0 0.00 0.00 0.00 69 1014.8
20200712034017 77 0.0 4.0 0.00 0.00 0.00 68 1014.7
20200712033018 77 302 1.0 4.0 0.00 0.00 0.00 66 1014.6
20200712032017 78 270 2.0 4.0 0.00 0.00 0.00 64 1014.5
20200712031017 78 227 0.0 4.0 0.00 0.00 0.00 62 1014.6
20200712030015 79 231 0.0 5.0 0.00 0.00 0.00 61 1014.5
20200712025019 80 219 0.0 5.0 0.00 0.00 0.00 60 1014.2
20200712024016 80 241 0.0 4.0 0.00 0.00 0.00 59 1014.2
20200712023017 81 242 1.0 6.0 0.00 0.00 0.00 59 1014.1
20200712022015 82 227 2.0 6.0 0.00 0.00 0.00 58 1014.1
20200712021017 82 233 1.0 6.0 0.00 0.00 0.00 58 1014.0
20200712020016 83 270 3.0 8.0 0.00 0.00 0.00 57 1013.9
20200712015019 84 264 4.0 8.0 0.00 0.00 0.00 55 1013.8
20200712014016 85 257 3.0 9.0 0.00 0.00 0.00 53 1013.8
20200712013017 86 250 2.0 8.0 0.00 0.00 0.00 47 1013.8
20200712012018 87 254 2.0 6.0 0.00 0.00 0.00 43 1013.8
20200712011016 87 262 3.0 7.0 0.00 0.00 0.00 44 1013.8
20200712010015 87 269 1.0 6.0 0.00 0.00 0.00 43 1013.8
20200712005016 86 281 1.0 6.0 0.00 0.00 0.00 45 1013.8
20200712004016 86 287 2.0 8.0 0.00 0.00 0.00 49 1013.8
20200712003015 86 302 2.0 7.0 0.00 0.00 0.00 48 1013.9
20200712002015 86 282 2.0 8.0 0.00 0.00 0.00 53 1014.0
20200712001015 86 277 4.0 9.0 0.00 0.00 0.00 54 1014.2
20200712000015 87 279 3.0 9.0 0.00 0.00 0.00 54 1014.3
20200711235015 87 291 4.0 10.0 0.00 0.00 0.00 54 1014.4
20200711234017 88 304 5.0 10.0 0.00 0.00 0.00 53 1014.5
20200711233016 89 262 4.0 8.0 0.00 0.00 0.00 52 1014.5
20200711232015 89 295 4.0 9.0 0.00 0.00 0.00 50 1014.5
20200711231015 90 284 3.0 9.0 0.00 0.00 0.00 45 1014.6
20200711230015 90 306 3.0 11.0 0.00 0.00 0.00 40 1014.6
20200711225016 90 274 4.0 10.0 0.00 0.00 0.00 44 1014.7
20200711224015 91 265 4.0 10.0 0.00 0.00 0.00 47 1014.6
20200711223015 92 272 3.0 9.0 0.00 0.00 0.00 46 1014.6
20200711222015 93 260 3.0 10.0 0.00 0.00 0.00 41 1014.6
20200711221016 94 260 4.0 10.0 0.00 0.00 0.00 42 1014.7
20200711220016 94 254 4.0 11.0 0.00 0.00 0.00 42 1014.7
20200711215015 95 255 4.0 10.0 0.00 0.00 0.00 42 1014.8
20200711214018 95 264 6.0 11.0 0.00 0.00 0.00 42 1014.7
20200711213015 94 277 3.0 9.0 0.00 0.00 0.00 44 1014.8
20200711212015 94 261 4.0 10.0 0.00 0.00 0.00 45 1014.9
20200711211015 94 261 4.0 11.0 0.00 0.00 0.00 44 1014.9
20200711210015 94 264 4.0 11.0 0.00 0.00 0.00 41 1015.0
20200711205015 94 264 3.0 8.0 0.00 0.00 0.00 38 1015.0
20200711204015 95 280 3.0 9.0 0.00 0.00 0.00 37 1015.1
20200711203015 96 291 3.0 9.0 0.00 0.00 0.00 39 1015.2
20200711202015 97 278 4.0 12.0 0.00 0.00 0.00 40 1015.3
20200711201015 96 304 6.0 12.0 0.00 0.00 0.00 41 1015.1
20200711200015 97 272 5.0 12.0 0.00 0.00 0.00 39 1015.2
20200711195017 98 278 5.0 12.0 0.00 0.00 0.00 41 1014.9
20200711194017 98 297 6.0 14.0 0.00 0.00 0.00 40 1015.2
20200711193017 97 275 6.0 11.0 0.00 0.00 0.00 42 1015.4
20200711192017 98 253 4.0 12.0 0.00 0.00 0.00 42 1015.6
20200711191017 98 249 4.0 10.0 0.00 0.00 0.00 40 1015.6
20200711190018 99 266 4.0 9.0 0.00 0.00 0.00 38 1015.6
20200711185018 99 263 3.0 9.0 0.00 0.00 0.00 39 1015.6
20200711184017 98 257 4.0 9.0 0.00 0.00 0.00 40 1015.5
20200711183018 98 269 2.0 9.0 0.00 0.00 0.00 41 1015.6
20200711182016 98 309 4.0 11.0 0.00 0.00 0.00 42 1015.2
20200711181018 97 317 3.0 8.0 0.00 0.00 0.00 44 1015.2
20200711180016 97 305 5.0 11.0 0.00 0.00 0.00 44 1015.1
20200711175017 96 312 4.0 10.0 0.00 0.00 0.00 45 1015.3
20200711174017 95 322 3.0 10.0 0.00 0.00 0.00 45 1015.6
20200711173018 94 324 0.0 9.0 0.00 0.00 0.00 45 1015.6
20200711172016 92 299 4.0 9.0 0.00 0.00 0.00 48 1015.4
20200711171017 91 284 0.0 5.0 0.00 0.00 0.00 51 1015.7
20200711170018 90 243 1.0 5.0 0.00 0.00 0.00 53 1015.7
20200711165016 89 308 2.0 5.0 0.00 0.00 0.00 55 1015.7
20200711164016 87 280 1.0 7.0 0.00 0.00 0.00 57 1015.6
20200711163016 86 228 1.0 5.0 0.00 0.00 0.00 58 1015.7
20200711162017 84 315 1.0 4.0 0.00 0.00 0.00 62 1015.6
20200711161016 83 189 2.0 6.0 0.00 0.00 0.00 64 1016.0
20200711160017 81 215 1.0 5.0 0.00 0.00 0.00 66 1016.0
20200711155016 79 236 0.0 4.0 0.00 0.00 0.00 70 1016.0
20200711154017 78 159 0.0 5.0 0.00 0.00 0.00 74 1016.1
20200711153016 76 161 0.0 3.0 0.00 0.00 0.00 77 1015.9
20200711152017 75 0.0 0.0 0.00 0.00 0.00 79 1015.9
20200711151018 74 289 0.0 2.0 0.00 0.00 0.00 81 1015.9
20200711150016 73 73 1.0 3.0 0.00 0.00 0.00 82 1015.9
20200711145016 72 0.0 0.0 0.00 0.00 0.00 84 1015.8
20200711144017 71 0.0 0.0 0.00 0.00 0.00 86 1015.8
20200711143021 70 0.0 0.0 0.00 0.00 0.00 88 1016.0
20200711142016 70 0.0 0.0 0.00 0.00 0.00 90 1015.8
20200711141016 69 0.0 0.0 0.00 0.00 0.00 92 1015.7
20200711140017 68 350 0.0 3.0 0.00 0.00 0.00 93 1015.7
20200711135019 68 350 1.0 3.0 0.00 0.00 0.00 93 1015.8
20200711134018 68 0.0 0.0 0.00 0.00 0.00 93 1015.8
20200711133016 67 0.0 0.0 0.00 0.00 0.00 93 1015.8
20200711132016 67 0.0 4.0 0.00 0.00 0.00 93 1015.5
20200711131016 67 349 2.0 5.0 0.00 0.00 0.00 93 1015.4
20200711130016 67 349 1.0 3.0 0.00 0.00 0.00 92 1015.7
20200711125016 67 13 0.0 3.0 0.00 0.00 0.00 92 1015.8
20200711124017 67 17 0.0 3.0 0.00 0.00 0.00 92 1015.8
20200711123016 67 0.0 2.0 0.00 0.00 0.00 92 1015.5
20200711122016 67 0.0 4.0 0.00 0.00 0.00 92 1015.3
20200711121016 67 10 2.0 5.0 0.00 0.00 0.00 92 1015.3
20200711120016 67 5 0.0 2.0 0.00 0.00 0.00 92 1015.3
20200711115016 67 5 0.0 3.0 0.00 0.00 0.00 91 1015.3
20200711114016 68 0.0 3.0 0.00 0.00 0.00 91 1015.4
20200711113016 68 9 0.0 3.0 0.00 0.00 0.00 90 1015.4
20200711112018 68 11 0.0 3.0 0.00 0.00 0.00 91 1015.3
20200711111016 68 9 0.0 3.0 0.00 0.00 0.00 90 1015.2
20200711110016 68 0.0 0.0 0.00 0.00 0.00 90 1015.1
20200711105016 68 0.0 2.0 0.00 0.00 0.00 90 1015.0
20200711104016 68 348 0.0 4.0 0.00 0.00 0.00 90 1015.1
20200711103016 68 345 0.0 3.0 0.00 0.00 0.00 90 1014.9
20200711102020 68 0.0 0.0 0.00 0.00 0.00 89 1015.0
20200711101016 69 0.0 0.0 0.00 0.00 0.00 89 1015.0
20200711100016 69 0.0 0.0 0.00 0.00 0.00 89 1015.1
20200711095016 69 0.0 0.0 0.00 0.00 0.00 89 1015.1
20200711094016 69 0.0 0.0 0.00 0.00 0.00 88 1015.2
20200711093016 69 0.0 0.0 0.00 0.00 0.00 88 1015.1
20200711091017 69 0.0 3.0 0.00 0.00 0.00 87 1015.2
20200711090016 69 0.0 3.0 0.00 0.00 0.00 87 1015.2
20200711085016 69 347 1.0 4.0 0.00 0.00 0.00 87 1015.2
20200711084016 69 0.0 0.0 0.00 0.00 0.00 87 1015.4
20200711083015 69 0.0 0.0 0.00 0.00 0.00 86 1015.5
20200711082019 69 0.0 0.0 0.00 0.00 0.00 86 1015.6
20200711081016 69 0.0 0.0 0.00 0.00 0.00 85 1015.6
20200711080020 70 0.0 0.0 0.00 0.00 0.00 86 1015.6
20200711075016 70 0.0 0.0 0.00 0.00 0.00 85 1015.7
20200711074015 70 0.0 0.0 0.00 0.00 0.00 84 1015.7
20200711073015 70 0.0 0.0 0.00 0.00 0.00 83 1015.7
20200711072015 70 0.0 0.0 0.00 0.00 0.00 83 1015.6
20200711071016 70 0.0 0.0 0.00 0.00 0.00 83 1015.5
20200711070015 71 0.0 0.0 0.00 0.00 0.00 82 1015.5
20200711065016 71 0.0 0.0 0.00 0.00 0.00 82 1015.5
20200711064016 71 0.0 0.0 0.00 0.00 0.00 82 1015.4
20200711063017 71 0.0 0.0 0.00 0.00 0.00 82 1015.4
20200711062016 71 0.0 0.0 0.00 0.00 0.00 82 1015.4